Time;durP1;ratioP1;P1;durP2;ratioP2;P2;SDS_P1;SDS_P2;PMS_P1;PMS_P2;Temp;Humidity;BMP_temperature;BMP_pressure;BME280_temperature;BME280_humidity;BME280_pressure;Samples;Min_cycle;Max_cycle;Signal;HPM_P1;HPM_P2
2021/08/28 00:02:09;;;;;;;;;0.00;0.00;;;;;16.46;58.38;101794.09;5078950;27;46863;-78
2021/08/28 00:04:34;;;;;;;;;0.00;0.00;;;;;16.49;58.87;101805.47;5078755;27;45299;-78
2021/08/28 00:07:00;;;;;;;;;0.00;0.00;;;;;16.45;59.10;101800.22;5069266;27;45979;-79
2021/08/28 00:09:26;;;;;;;;;0.00;0.00;;;;;16.19;58.65;101755.53;5079792;27;45256;-79
2021/08/28 00:11:51;;;;;;;;;0.00;0.00;;;;;16.08;59.24;101740.63;5079216;27;45363;-78
2021/08/28 00:14:17;;;;;;;;;0.00;0.00;;;;;16.21;59.31;101780.06;5073829;27;45387;-78
2021/08/28 00:16:42;;;;;;;;;0.00;0.00;;;;;16.08;59.22;101745.03;5096689;27;45312;-78
2021/08/28 00:19:08;;;;;;;;;0.00;0.00;;;;;16.32;59.39;101796.72;5080051;27;45244;-78
2021/08/28 00:21:34;;;;;;;;;0.00;0.00;;;;;16.06;59.85;101762.50;5080194;27;46266;-78
2021/08/28 00:24:01;;;;;;;;;0.00;0.00;;;;;15.92;59.87;101723.94;5077392;27;45479;-78
2021/08/28 00:26:27;;;;;;;;;0.00;0.00;;;;;15.99;60.49;101743.25;5063128;27;45303;-77
2021/08/28 00:28:52;;;;;;;;;0.00;0.00;;;;;16.06;60.34;101783.53;5065007;28;45719;-78
2021/08/28 00:31:18;;;;;;;;;0.00;0.00;;;;;15.71;60.84;101730.00;5078840;28;47155;-78
2021/08/28 00:33:43;;;;;;;;;0.00;0.00;;;;;15.67;61.16;101750.13;5077728;28;45528;-78
2021/08/28 00:36:08;;;;;;;;;0.00;0.00;;;;;15.54;61.18;101725.59;5077622;27;45534;-78
2021/08/28 00:38:34;;;;;;;;;0.00;0.00;;;;;15.71;61.86;101749.25;5077365;28;45424;-78
2021/08/28 00:40:59;;;;;;;;;0.00;0.00;;;;;15.53;61.23;101730.84;5080641;27;45265;-78
2021/08/28 00:43:25;;;;;;;;;0.00;0.00;;;;;15.44;61.92;101721.19;5079141;27;45223;-78
2021/08/28 00:45:51;;;;;;;;;0.00;0.00;;;;;15.45;61.66;101718.56;5085321;27;45472;-77
2021/08/28 00:48:16;;;;;;;;;0.00;0.00;;;;;15.61;61.71;101746.59;5058377;28;45889;-78
2021/08/28 00:50:44;;;;;;;;;0.00;0.00;;;;;15.76;61.95;101772.91;5060114;28;46303;-77
2021/08/28 00:53:15;;;;;;;;;0.00;0.00;;;;;15.71;62.04;101764.13;5069900;28;45525;-77
2021/08/28 00:55:43;;;;;;;;;0.00;0.00;;;;;15.72;62.14;101752.78;5067662;28;45259;-78
2021/08/28 00:58:08;;;;;;;;;0.00;0.00;;;;;15.83;61.62;101774.69;5079272;27;45382;-77
2021/08/28 01:00:47;;;;;;;;;0.00;0.00;;;;;15.67;62.44;101755.38;5078264;27;46118;-77
2021/08/28 01:03:16;;;;;;;;;0.00;0.00;;;;;15.51;62.10;101733.44;5078418;27;45653;-77
2021/08/28 01:06:00;;;;;;;;;0.00;0.00;;;;;15.65;61.85;101738.72;5075602;27;45268;-77
2021/08/28 01:08:42;;;;;;;;;0.00;0.00;;;;;15.75;62.64;101773.78;5077247;28;45216;-76
2021/08/28 01:11:27;;;;;;;;;0.00;0.00;;;;;15.32;62.08;101703.63;5080200;27;45417;-76
2021/08/28 01:14:04;;;;;;;;;0.50;0.00;;;;;15.63;63.01;101777.25;5077711;27;45682;-77
2021/08/28 01:16:33;;;;;;;;;0.00;0.00;;;;;15.24;62.98;101731.56;5066421;28;45471;-77
2021/08/28 01:18:58;;;;;;;;;0.00;0.00;;;;;15.30;63.11;101747.34;5087460;27;45582;-78
2021/08/28 01:21:29;;;;;;;;;0.00;0.00;;;;;15.30;63.82;101774.44;5078546;28;46057;-78
2021/08/28 01:23:59;;;;;;;;;0.00;0.00;;;;;15.33;63.66;101773.59;5077220;27;45320;-79
2021/08/28 01:26:30;;;;;;;;;0.50;0.00;;;;;15.17;63.50;101743.78;5074576;27;46399;-78
2021/08/28 01:29:08;;;;;;;;;0.00;0.00;;;;;15.28;64.33;101785.81;5107571;27;45599;-76
2021/08/28 01:31:34;;;;;;;;;0.00;0.00;;;;;15.13;64.33;101761.22;5077240;28;47584;-79
2021/08/28 01:34:00;;;;;;;;;0.00;0.00;;;;;14.87;64.41;101721.75;5078197;28;45822;-77
2021/08/28 01:36:26;;;;;;;;;0.00;0.00;;;;;15.18;64.39;101762.16;5081073;27;45480;-77
2021/08/28 01:38:53;;;;;;;;;0.00;0.00;;;;;15.24;64.56;101781.41;5082475;27;45501;-77
2021/08/28 01:41:19;;;;;;;;;0.00;0.00;;;;;15.28;64.56;101789.28;5114569;27;47157;-77
2021/08/28 01:43:45;;;;;;;;;0.00;0.00;;;;;15.09;64.57;101748.97;5081631;28;45309;-77
2021/08/28 01:46:11;;;;;;;;;0.00;0.00;;;;;15.42;64.57;101772.75;5080548;28;45375;-77
2021/08/28 01:48:37;;;;;;;;;0.00;0.00;;;;;15.45;64.02;101775.41;5082689;27;45574;-77
2021/08/28 01:51:03;;;;;;;;;0.00;0.00;;;;;15.38;64.12;101750.91;5081523;27;46526;-77
2021/08/28 01:53:28;;;;;;;;;0.00;0.00;;;;;15.10;64.28;101716.63;5082171;27;45266;-77
2021/08/28 01:55:54;;;;;;;;;0.00;0.00;;;;;15.33;64.19;101761.34;5093197;27;45564;-78
2021/08/28 01:58:20;;;;;;;;;0.00;0.00;;;;;15.50;63.87;101770.19;5096453;27;45430;-78
2021/08/28 02:00:45;;;;;;;;;0.00;0.00;;;;;15.62;64.06;101785.97;5080173;27;45642;-78
2021/08/28 02:03:11;;;;;;;;;0.50;0.00;;;;;15.35;63.90;101718.50;5093841;27;45527;-78
2021/08/28 02:05:43;;;;;;;;;0.00;0.00;;;;;15.41;64.15;101729.03;5063332;28;45340;-77
2021/08/28 02:08:15;;;;;;;;;1.00;0.00;;;;;15.71;63.65;101779.88;5079388;27;45298;-77
2021/08/28 02:11:16;;;;;;;;;0.00;0.00;;;;;15.61;64.10;101784.22;5098179;27;47856;-77
2021/08/28 02:13:58;;;;;;;;;0.00;0.00;;;;;15.48;64.26;101774.53;5073272;27;45285;-78
2021/08/28 02:16:27;;;;;;;;;0.00;0.00;;;;;15.30;64.18;101739.47;5076762;28;45496;-77
2021/08/28 02:18:58;;;;;;;;;0.00;0.00;;;;;15.30;64.26;101739.47;5090379;27;45505;-77
2021/08/28 02:21:26;;;;;;;;;0.00;0.00;;;;;15.59;64.64;101791.19;5081417;27;45515;-77
2021/08/28 02:24:15;;;;;;;;;0.00;0.00;;;;;15.58;64.51;101798.22;5092676;27;45444;-78
2021/08/28 02:26:46;;;;;;;;;0.00;0.00;;;;;15.36;64.65;101777.97;5079927;27;45778;-78
2021/08/28 02:29:24;;;;;;;;;0.00;0.00;;;;;15.33;65.75;101795.47;5063135;27;45574;-78
2021/08/28 02:31:51;;;;;;;;;0.00;0.00;;;;;15.32;65.11;101790.22;5098043;27;48236;-78
2021/08/28 02:34:19;;;;;;;;;2.00;0.00;;;;;15.30;65.62;101792.81;5080964;27;45255;-77
2021/08/28 02:36:45;;;;;;;;;0.00;0.00;;;;;15.32;65.69;101803.31;5059872;28;45292;-77
2021/08/28 02:39:13;;;;;;;;;0.00;0.00;;;;;15.30;65.64;101791.94;5097153;27;45803;-77
2021/08/28 02:41:42;;;;;;;;;0.00;0.00;;;;;15.33;65.51;101800.72;5081986;28;46333;-78
2021/08/28 02:44:08;;;;;;;;;0.00;0.00;;;;;15.15;65.52;101767.38;5081476;27;45244;-78
2021/08/28 02:46:35;;;;;;;;;0.50;0.00;;;;;15.05;65.46;101761.19;5078817;28;45275;-78
2021/08/28 02:49:04;;;;;;;;;0.00;0.00;;;;;15.03;65.79;101757.69;5077966;28;46120;-77
2021/08/28 02:51:31;;;;;;;;;0.00;0.00;;;;;15.30;65.41;101782.31;5082134;28;45469;-78
2021/08/28 02:54:00;;;;;;;;;0.00;0.00;;;;;15.31;64.97;101775.31;5080460;28;45256;-78
2021/08/28 02:56:29;;;;;;;;;0.00;0.00;;;;;15.44;65.40;101781.53;5078621;27;45333;-77
2021/08/28 02:58:55;;;;;;;;;0.00;0.00;;;;;15.11;65.49;101738.50;5077893;27;45658;-78
2021/08/28 03:01:20;;;;;;;;;0.00;0.00;;;;;15.36;65.51;101777.97;5081055;27;46444;-77
2021/08/28 03:03:47;;;;;;;;;0.00;0.00;;;;;15.35;65.42;101773.59;5082111;27;45291;-78
2021/08/28 03:06:14;;;;;;;;;0.00;0.00;;;;;15.07;65.15;101745.47;5081442;28;45143;-77
2021/08/28 03:08:44;;;;;;;;;0.50;0.00;;;;;15.25;65.50;101770.91;5077586;28;45304;-78
2021/08/28 03:11:09;;;;;;;;;0.00;0.00;;;;;15.27;65.44;101763.94;5080327;27;45469;-77
2021/08/28 03:13:35;;;;;;;;;0.00;0.00;;;;;15.25;65.59;101759.56;5079470;28;45477;-78
2021/08/28 03:16:01;;;;;;;;;0.00;0.00;;;;;15.20;65.90;101763.00;5081970;27;45260;-77
2021/08/28 03:18:29;;;;;;;;;0.00;0.00;;;;;15.20;66.28;101791.00;5076375;27;45573;-78
2021/08/28 03:20:56;;;;;;;;;0.00;0.00;;;;;14.65;65.98;101697.97;5080835;27;45573;-77
2021/08/28 03:23:25;;;;;;;;;0.00;0.00;;;;;14.78;66.05;101726.06;5085742;27;45265;-77
2021/08/28 03:25:51;;;;;;;;;0.00;0.00;;;;;15.13;66.00;101781.34;5089741;27;45292;-78
2021/08/28 03:28:17;;;;;;;;;0.00;0.00;;;;;15.12;66.22;101780.47;5077626;27;45426;-78
2021/08/28 03:30:48;;;;;;;;;0.00;0.00;;;;;15.09;65.87;101755.97;5079908;27;47277;-78
2021/08/28 03:33:18;;;;;;;;;0.00;0.00;;;;;14.97;65.79;101748.91;5081001;27;45374;-78
2021/08/28 03:35:46;;;;;;;;;0.00;0.00;;;;;14.91;65.94;101744.47;5092858;27;45291;-78
2021/08/28 03:38:13;;;;;;;;;0.00;0.00;;;;;14.86;65.89;101725.25;5066732;28;45367;-78
2021/08/28 03:40:39;;;;;;;;;0.00;0.00;;;;;14.94;66.15;101739.25;5079782;27;45432;-78
2021/08/28 03:43:05;;;;;;;;;0.00;0.00;;;;;14.78;66.61;101733.94;5062911;28;45862;-78
2021/08/28 03:45:30;;;;;;;;;0.00;0.00;;;;;14.54;66.98;101716.22;5080645;27;45279;-78
2021/08/28 03:47:56;;;;;;;;;0.00;0.00;;;;;14.72;67.19;101748.69;5077679;27;45374;-78
2021/08/28 03:50:22;;;;;;;;;0.00;0.00;;;;;14.78;67.58;101772.34;5060955;28;45326;-77
2021/08/28 03:52:48;;;;;;;;;2.00;0.00;;;;;14.77;66.96;101773.19;5069791;28;45498;-78
2021/08/28 03:55:14;;;;;;;;;0.00;0.00;;;;;14.84;67.04;101775.03;5081070;28;45271;-78
2021/08/28 03:57:39;;;;;;;;;0.00;0.00;;;;;14.79;67.10;101758.38;5070466;28;45265;-78
2021/08/28 04:00:05;;;;;;;;;0.00;0.00;;;;;14.90;66.99;101774.19;5076854;28;45674;-78
2021/08/28 04:02:31;;;;;;;;;0.00;0.00;;;;;14.58;67.43;101728.53;5078991;28;45326;-78
2021/08/28 04:04:56;;;;;;;;;0.00;0.00;;;;;14.62;67.35;101738.16;5081208;28;45311;-78
2021/08/28 04:07:22;;;;;;;;;0.00;0.00;;;;;14.64;67.70;101751.25;5078704;27;45482;-77
2021/08/28 04:09:47;;;;;;;;;0.00;0.00;;;;;14.79;67.84;101774.09;5074077;27;47375;-78
2021/08/28 04:12:13;;;;;;;;;0.00;0.00;;;;;14.43;67.65;101717.03;5068407;28;45354;-77
2021/08/28 04:14:38;;;;;;;;;0.00;0.00;;;;;14.65;67.89;101758.25;5079969;27;45414;-77
2021/08/28 04:17:04;;;;;;;;;0.00;0.00;;;;;14.69;68.04;101763.53;5081194;27;45325;-77
2021/08/28 04:19:29;;;;;;;;;0.00;0.00;;;;;14.75;68.02;101765.31;5073911;27;46619;-77
2021/08/28 04:21:55;;;;;;;;;1.00;1.00;;;;;14.47;68.05;101722.28;5079126;27;45296;-77
2021/08/28 04:24:20;;;;;;;;;0.00;0.00;;;;;14.64;68.08;101757.38;5079035;28;45390;-77
2021/08/28 04:26:46;;;;;;;;;0.00;0.00;;;;;14.77;67.65;101774.09;5079949;27;45224;-77
2021/08/28 04:29:11;;;;;;;;;0.00;0.00;;;;;14.44;68.27;101723.16;5077204;27;45363;-77
2021/08/28 04:31:37;;;;;;;;;0.00;0.00;;;;;14.63;68.08;101750.38;5079796;28;45323;-77
2021/08/28 04:34:02;;;;;;;;;0.00;0.00;;;;;14.55;67.73;101734.59;5078753;28;45415;-78
2021/08/28 04:36:27;;;;;;;;;0.00;0.00;;;;;14.49;67.94;101724.06;5080598;27;45359;-78
2021/08/28 04:38:53;;;;;;;;;0.00;0.00;;;;;14.81;68.18;101781.13;5076725;28;47031;-77
2021/08/28 04:41:18;;;;;;;;;0.00;0.00;;;;;14.62;68.21;101758.22;5078830;28;45304;-77
2021/08/28 04:43:43;;;;;;;;;0.00;0.00;;;;;14.47;68.74;101751.09;5095366;27;45714;-77
2021/08/28 04:46:09;;;;;;;;;0.00;0.00;;;;;14.41;68.90;101742.34;5080717;28;45406;-77
2021/08/28 04:48:35;;;;;;;;;1.00;0.00;;;;;14.52;68.42;101747.66;5075613;28;48074;-77
2021/08/28 04:51:01;;;;;;;;;0.00;0.00;;;;;14.48;68.62;101753.75;5076564;28;45364;-78
2021/08/28 04:53:26;;;;;;;;;0.00;0.00;;;;;14.56;68.73;101762.56;5095742;27;45373;-78
2021/08/28 04:55:52;;;;;;;;;0.00;0.00;;;;;14.60;68.71;101768.69;5079654;27;45339;-78
2021/08/28 04:58:17;;;;;;;;;0.00;0.00;;;;;14.62;68.67;101772.22;5077812;27;48062;-77
2021/08/28 05:00:42;;;;;;;;;0.00;0.00;;;;;14.53;68.95;101752.06;5074038;28;45869;-78
2021/08/28 05:03:08;;;;;;;;;0.00;0.00;;;;;14.75;68.38;101785.41;5079560;27;45470;-77
2021/08/28 05:05:33;;;;;;;;;0.00;0.00;;;;;14.64;68.02;101762.59;5080389;27;45288;-77
2021/08/28 05:07:59;;;;;;;;;3.00;1.00;;;;;14.68;68.24;101769.63;5078768;27;45359;-77
2021/08/28 05:10:24;;;;;;;;;0.00;0.00;;;;;14.69;67.99;101776.63;5080691;27;45307;-77
2021/08/28 05:12:49;;;;;;;;;0.00;0.00;;;;;14.68;68.04;101779.25;5081463;28;45213;-77
2021/08/28 05:15:15;;;;;;;;;0.00;0.00;;;;;14.49;68.09;101741.53;5083515;27;45387;-77
2021/08/28 05:17:41;;;;;;;;;0.25;0.25;;;;;14.79;67.84;101787.22;5082800;28;45698;-77
2021/08/28 05:20:07;;;;;;;;;0.00;0.00;;;;;14.68;67.92;101777.47;5078936;27;45220;-77
2021/08/28 05:22:32;;;;;;;;;0.00;0.00;;;;;14.66;67.73;101771.38;5081492;27;45705;-77
2021/08/28 05:24:57;;;;;;;;;0.00;0.00;;;;;14.57;67.83;101766.03;5083730;27;45287;-77
2021/08/28 05:27:23;;;;;;;;;0.00;0.00;;;;;14.60;68.10;101771.31;5081159;27;45263;-77
2021/08/28 05:29:48;;;;;;;;;0.00;0.00;;;;;14.48;68.02;101738.03;5094779;27;45310;-77
2021/08/28 05:32:13;;;;;;;;;0.00;0.00;;;;;14.49;67.93;101733.69;5082700;28;45469;-77
2021/08/28 05:34:39;;;;;;;;;0.00;0.00;;;;;14.75;68.42;101775.81;5082921;28;45562;-77
2021/08/28 05:37:04;;;;;;;;;0.00;0.00;;;;;14.73;68.31;101772.28;5082176;28;47230;-77
2021/08/28 05:39:30;;;;;;;;;0.00;0.00;;;;;14.67;68.11;101767.88;5082400;27;45366;-77
2021/08/28 05:41:56;;;;;;;;;0.00;0.00;;;;;14.67;68.43;101762.63;5095118;27;45346;-77
2021/08/28 05:44:22;;;;;;;;;0.00;0.00;;;;;14.69;68.14;101760.03;5097430;27;46054;-77
2021/08/28 05:46:47;;;;;;;;;0.00;0.00;;;;;14.45;68.53;101709.19;5081717;27;46284;-78
2021/08/28 05:49:12;;;;;;;;;0.00;0.00;;;;;14.75;68.27;101767.06;5082210;27;45523;-77
2021/08/28 05:51:38;;;;;;;;;0.00;0.00;;;;;14.98;68.85;101796.13;5078736;27;45353;-77
2021/08/28 05:54:03;;;;;;;;;0.00;0.00;;;;;14.61;68.32;101725.88;5082970;27;45253;-77
2021/08/28 05:56:40;;;;;;;;;0.50;0.00;;;;;14.73;68.65;101758.31;5086147;28;47013;-81
2021/08/28 05:59:06;;;;;;;;;0.00;0.00;;;;;14.23;68.79;101667.09;5081202;28;45507;-77
2021/08/28 06:01:31;;;;;;;;;0.00;0.00;;;;;14.90;68.81;101787.31;5078567;27;45306;-76
2021/08/28 06:03:56;;;;;;;;;0.00;0.00;;;;;14.95;68.68;101799.56;5081674;27;45223;-77
2021/08/28 06:06:22;;;;;;;;;0.00;0.00;;;;;14.91;68.98;101784.69;5080778;27;45323;-76
2021/08/28 06:08:47;;;;;;;;;0.00;0.00;;;;;15.00;68.72;101796.09;5082804;27;45410;-76
2021/08/28 06:11:12;;;;;;;;;0.00;0.00;;;;;14.85;68.42;101771.53;5077800;27;45321;-77
2021/08/28 06:13:38;;;;;;;;;0.00;0.00;;;;;14.90;68.88;101787.31;5081816;27;45539;-77
2021/08/28 06:16:04;;;;;;;;;0.00;0.00;;;;;14.96;68.74;101787.34;5081018;28;47333;-77
2021/08/28 06:18:29;;;;;;;;;0.00;0.00;;;;;14.82;68.92;101769.78;5079713;27;45533;-77
2021/08/28 06:20:56;;;;;;;;;0.00;0.00;;;;;14.75;69.06;101770.56;5077790;27;45559;-77
2021/08/28 06:23:21;;;;;;;;;0.00;0.00;;;;;14.83;69.00;101773.28;5088573;27;45489;-77
2021/08/28 06:25:47;;;;;;;;;0.25;0.25;;;;;15.09;69.25;101822.41;5085041;27;45360;-77
2021/08/28 06:28:12;;;;;;;;;0.00;0.00;;;;;14.85;69.33;101782.03;5081786;27;45444;-77
2021/08/28 06:30:37;;;;;;;;;0.00;0.00;;;;;14.87;69.61;101779.41;5086334;27;45306;-77
2021/08/28 06:33:03;;;;;;;;;0.00;0.00;;;;;14.83;69.65;101770.66;5098595;27;45666;-77
2021/08/28 06:35:28;;;;;;;;;0.00;0.00;;;;;15.07;69.43;101808.41;5075996;28;45317;-77
2021/08/28 06:37:53;;;;;;;;;0.00;0.00;;;;;14.83;69.18;101752.31;5108060;27;46004;-78
2021/08/28 06:40:19;;;;;;;;;0.00;0.00;;;;;14.86;69.39;101752.34;5093670;27;45903;-78
2021/08/28 06:42:44;;;;;;;;;0.00;0.00;;;;;15.07;69.04;101798.78;5093971;27;44793;-78
2021/08/28 06:45:10;;;;;;;;;0.00;0.00;;;;;15.25;69.40;101822.53;5093467;28;47386;-78
2021/08/28 06:47:35;;;;;;;;;2.25;2.00;;;;;15.14;68.97;101802.34;5106594;27;45252;-77
2021/08/28 06:50:01;;;;;;;;;0.00;0.00;;;;;14.97;69.29;101764.66;5079604;27;45537;-77
2021/08/28 06:52:26;;;;;;;;;0.00;0.00;;;;;14.96;69.00;101753.28;5078195;27;45377;-76
2021/08/28 06:54:51;;;;;;;;;0.00;0.00;;;;;15.36;68.98;101823.44;5078476;27;45330;-77
2021/08/28 06:57:16;;;;;;;;;0.00;0.00;;;;;15.32;69.27;101826.94;5080350;27;45453;-77
2021/08/28 06:59:43;;;;;;;;;0.00;0.00;;;;;15.34;69.44;101830.44;5076807;27;45600;-76
2021/08/28 07:02:08;;;;;;;;;0.00;0.00;;;;;15.30;69.09;101803.31;5077090;27;46638;-76
2021/08/28 07:04:34;;;;;;;;;0.00;0.00;;;;;15.39;69.18;101819.97;5084725;27;45493;-77
2021/08/28 07:06:59;;;;;;;;;0.00;0.00;;;;;15.23;69.07;101767.44;5078396;27;44930;-77
2021/08/28 07:09:25;;;;;;;;;0.00;0.00;;;;;15.51;68.95;101782.41;5082231;27;45802;-77
2021/08/28 07:11:51;;;;;;;;;0.75;0.00;;;;;15.83;68.26;101829.81;5077556;27;46854;-78
2021/08/28 07:14:17;;;;;;;;;0.25;0.00;;;;;15.64;68.72;101799.09;5083348;27;46298;-78
2021/08/28 07:16:42;;;;;;;;;0.00;0.00;;;;;15.80;68.82;101818.41;5082706;27;45323;-77
2021/08/28 07:19:08;;;;;;;;;0.00;0.00;;;;;15.80;68.13;101794.78;5080423;27;45354;-77
2021/08/28 07:21:33;;;;;;;;;0.00;0.00;;;;;16.07;68.01;101828.19;5080291;27;45375;-77
2021/08/28 07:23:59;;;;;;;;;0.00;0.00;;;;;15.91;68.12;101794.81;5082164;27;46410;-77
2021/08/28 07:26:24;;;;;;;;;0.00;0.00;;;;;16.05;67.98;101810.66;5080502;27;45528;-77
2021/08/28 07:28:49;;;;;;;;;0.50;0.00;;;;;16.06;68.05;101809.78;5080865;27;45426;-77
2021/08/28 07:31:15;;;;;;;;;0.00;0.00;;;;;15.82;68.16;101761.53;5078883;27;45307;-76
2021/08/28 07:33:40;;;;;;;;;0.00;0.00;;;;;16.07;68.12;101772.13;5078433;27;47337;-76
2021/08/28 07:36:07;;;;;;;;;0.00;0.00;;;;;16.33;67.59;101784.47;5079542;27;45256;-77
2021/08/28 07:38:32;;;;;;;;;0.00;0.00;;;;;16.54;67.65;101794.09;5083844;27;45502;-79
2021/08/28 07:40:58;;;;;;;;;0.00;0.00;;;;;16.30;66.88;101753.78;5087544;27;45563;-82
2021/08/28 07:43:23;;;;;;;;;1.00;0.00;;;;;16.57;66.63;101798.50;5086435;27;46536;-85
2021/08/28 07:45:49;;;;;;;;;0.00;0.00;;;;;16.34;66.94;101763.44;5079616;27;45315;-84
2021/08/28 07:48:14;;;;;;;;;0.00;0.00;;;;;16.56;66.73;101797.63;5077876;27;45361;-85
2021/08/28 07:50:39;;;;;;;;;0.00;0.00;;;;;16.21;66.85;101738.03;5091180;27;45576;-77
2021/08/28 07:53:05;;;;;;;;;0.25;0.00;;;;;16.85;66.75;101837.94;5084502;27;46025;-77
2021/08/28 07:55:49;;;;;;;;;0.00;0.00;;;;;15.85;66.80;101682.78;5076506;28;46260;-86
2021/08/28 07:58:15;;;;;;;;;0.00;0.00;;;;;16.55;66.58;101800.25;5091424;27;45734;-84
2021/08/28 08:00:40;;;;;;;;;0.00;0.00;;;;;16.38;66.62;101768.69;5078201;27;45444;-83
2021/08/28 08:03:06;;;;;;;;;0.00;0.00;;;;;16.10;66.38;101719.63;5077175;27;46882;-82
2021/08/28 08:05:31;;;;;;;;;0.00;0.00;;;;;16.61;66.60;101796.72;5100673;27;45670;-77
2021/08/28 08:07:56;;;;;;;;;0.00;0.00;;;;;16.40;66.60;101773.06;5076800;27;45491;-75
2021/08/28 08:10:22;;;;;;;;;1.00;0.00;;;;;16.80;66.90;101837.03;5087358;27;45635;-79
2021/08/28 08:12:47;;;;;;;;;0.00;0.00;;;;;16.66;66.85;101810.75;5071927;27;45957;-80
2021/08/28 08:15:13;;;;;;;;;0.00;0.00;;;;;16.72;66.84;101819.53;5079782;27;45460;-81
2021/08/28 08:17:38;;;;;;;;;0.00;0.00;;;;;16.06;67.24;101708.25;5106362;27;45453;-83
2021/08/28 08:20:04;;;;;;;;;1.00;0.00;;;;;16.28;67.39;101725.75;5081165;27;45536;-83
2021/08/28 08:22:29;;;;;;;;;0.00;0.00;;;;;16.72;66.85;101792.34;5087030;27;46991;-83
2021/08/28 08:24:55;;;;;;;;;0.00;0.00;;;;;16.80;67.01;101793.22;5080468;27;45888;-84
2021/08/28 08:27:21;;;;;;;;;0.00;0.00;;;;;16.92;66.71;101810.75;5081646;27;45311;-78
2021/08/28 08:29:46;;;;;;;;;0.00;0.00;;;;;17.13;66.67;101830.06;5080009;28;45624;-81
2021/08/28 08:32:11;;;;;;;;;1.00;0.00;;;;;16.96;66.46;101788.81;5071468;27;46970;-80
2021/08/28 08:34:37;;;;;;;;;0.00;0.00;;;;;17.20;66.35;101813.38;5071422;27;45860;-78
2021/08/28 08:37:02;;;;;;;;;0.00;0.00;;;;;17.11;66.75;101802.88;5086936;27;45570;-78
2021/08/28 08:39:28;;;;;;;;;0.00;0.00;;;;;17.26;66.88;101817.75;5070732;27;45461;-79
2021/08/28 08:41:54;;;;;;;;;0.00;0.00;;;;;17.17;66.85;101797.59;5067973;27;45569;-76
2021/08/28 08:44:21;;;;;;;;;0.00;0.00;;;;;17.45;66.33;101828.22;5089228;27;45420;-78
2021/08/28 08:46:48;;;;;;;;;0.00;0.00;;;;;17.54;65.81;101829.94;5081145;27;45470;-77
2021/08/28 08:49:13;;;;;;;;;2.00;1.00;;;;;17.42;65.91;101805.41;5084739;27;45403;-77
2021/08/28 08:51:39;;;;;;;;;0.00;0.00;;;;;17.60;65.78;101820.28;5078098;27;47410;-79
2021/08/28 08:54:05;;;;;;;;;0.00;0.00;;;;;17.91;65.11;101829.81;5083753;27;45453;-78
2021/08/28 08:56:32;;;;;;;;;0.00;0.00;;;;;17.87;64.65;101796.47;5081897;27;45762;-77
2021/08/28 08:58:58;;;;;;;;;0.00;0.00;;;;;17.94;64.54;101802.56;5092766;27;45622;-79
2021/08/28 09:01:24;;;;;;;;;0.00;0.00;;;;;18.10;64.00;101833.25;5084185;27;46197;-79
2021/08/28 09:03:50;;;;;;;;;1.00;1.00;;;;;17.87;63.49;101791.22;5075499;27;45692;-78
2021/08/28 09:06:16;;;;;;;;;0.00;0.00;;;;;18.03;63.10;101806.91;5078475;27;45425;-78
2021/08/28 09:08:41;;;;;;;;;1.00;0.00;;;;;18.36;63.38;101847.16;5079644;27;45414;-78
2021/08/28 09:11:23;;;;;;;;;1.50;0.00;;;;;18.36;63.10;101831.34;5089561;27;47730;-83
2021/08/28 09:13:50;;;;;;;;;0.00;0.00;;;;;18.44;62.48;101829.53;5069267;28;45424;-81
2021/08/28 09:16:30;;;;;;;;;0.00;0.00;;;;;18.48;62.17;101833.03;5074972;27;45445;-81
2021/08/28 09:18:56;;;;;;;;;0.00;0.00;;;;;18.64;61.99;101840.81;5098186;27;45318;-81
2021/08/28 09:21:23;;;;;;;;;0.00;0.00;;;;;18.54;61.62;101818.94;5088456;27;47810;-80
2021/08/28 09:23:57;;;;;;;;;3.00;0.00;;;;;18.34;61.95;101793.56;5073700;27;45524;-81
2021/08/28 09:26:28;;;;;;;;;0.00;0.00;;;;;18.61;61.77;101823.25;5071356;27;45421;-79
2021/08/28 09:28:56;;;;;;;;;0.00;0.00;;;;;18.46;61.51;101805.78;5043130;27;45559;-79
2021/08/28 09:31:48;;;;;;;;;0.00;0.00;;;;;18.67;61.82;101840.78;5038424;28;48180;-77
2021/08/28 09:34:22;;;;;;;;;0.00;0.00;;;;;18.81;61.64;101838.91;5052702;28;45340;-78
2021/08/28 09:36:58;;;;;;;;;0.00;0.00;;;;;18.98;60.73;101846.69;5029241;28;45552;-79
2021/08/28 09:39:47;;;;;;;;;0.00;0.00;;;;;19.02;61.03;101839.63;5028615;28;45573;-79
2021/08/28 09:42:23;;;;;;;;;0.00;0.00;;;;;19.14;60.48;101849.22;5035580;28;45495;-79
2021/08/28 09:44:50;;;;;;;;;1.00;0.00;;;;;18.91;60.47;101818.63;5042856;28;45340;-78
2021/08/28 09:47:20;;;;;;;;;0.00;0.00;;;;;18.46;59.22;101735.50;5052990;28;45350;-78
2021/08/28 09:49:47;;;;;;;;;1.75;0.00;;;;;19.16;60.08;101831.59;5039455;28;45544;-78
2021/08/28 09:52:25;;;;;;;;;0.00;0.00;;;;;19.11;59.35;101807.91;5045156;28;46425;-78
2021/08/28 09:54:51;;;;;;;;;0.00;0.00;;;;;19.20;58.90;101819.28;5035751;28;45765;-80
2021/08/28 09:57:17;;;;;;;;;0.00;0.00;;;;;19.27;59.08;101820.06;5039547;28;45608;-79
2021/08/28 09:59:43;;;;;;;;;0.00;0.00;;;;;19.00;59.37;101783.38;5032848;28;45548;-83
2021/08/28 10:02:12;;;;;;;;;0.00;0.00;;;;;19.13;59.08;101794.69;5033215;28;45695;-77
2021/08/28 10:04:50;;;;;;;;;0.00;0.00;;;;;19.41;58.92;101841.91;5031710;28;45496;-84
2021/08/28 10:07:30;;;;;;;;;0.00;0.00;;;;;19.44;58.94;101839.25;5032357;28;45518;-79
2021/08/28 10:09:56;;;;;;;;;0.00;0.00;;;;;19.35;58.54;101836.69;5029433;28;45575;-77
2021/08/28 10:12:23;;;;;;;;;0.00;0.00;;;;;19.25;58.98;101828.00;5031715;28;45558;-78
2021/08/28 10:14:51;;;;;;;;;0.00;0.00;;;;;19.05;58.60;101800.00;5036548;28;45545;-75
2021/08/28 10:17:18;;;;;;;;;0.00;0.00;;;;;19.33;58.75;101830.56;5047587;28;45489;-74
2021/08/28 10:19:49;;;;;;;;;0.00;0.00;;;;;19.29;58.49;101839.41;5035313;28;45607;-77
2021/08/28 10:22:18;;;;;;;;;0.00;0.00;;;;;18.98;58.66;101803.59;5067677;28;47606;-76
2021/08/28 10:24:44;;;;;;;;;0.00;0.00;;;;;19.06;59.27;101822.00;5038975;28;46361;-77
2021/08/28 10:27:11;;;;;;;;;0.75;0.00;;;;;19.16;59.10;101843.91;5090300;27;45529;-76
2021/08/28 10:29:38;;;;;;;;;0.00;0.00;;;;;19.22;58.96;101841.22;5079032;27;45609;-75
2021/08/28 10:32:05;;;;;;;;;0.00;0.00;;;;;18.99;58.88;101818.56;5088312;27;48029;-76
2021/08/28 10:34:32;;;;;;;;;0.00;0.00;;;;;19.13;58.81;101852.75;5078955;27;45656;-76
2021/08/28 10:36:57;;;;;;;;;0.00;0.00;;;;;19.12;59.09;101829.91;5080259;27;45540;-76
2021/08/28 10:39:23;;;;;;;;;0.00;0.00;;;;;18.87;59.05;101769.44;5079607;28;45370;-76
2021/08/28 10:41:48;;;;;;;;;0.00;0.00;;;;;19.30;59.31;101820.03;5105201;27;47312;-76
2021/08/28 10:44:14;;;;;;;;;0.00;0.00;;;;;19.48;58.59;101834.81;5099346;27;45405;-76
2021/08/28 10:46:42;;;;;;;;;0.00;0.00;;;;;19.41;58.41;101823.44;5079844;27;45391;-76
2021/08/28 10:49:11;;;;;;;;;0.00;0.00;;;;;19.51;58.47;101824.22;5083968;27;45555;-76
2021/08/28 10:51:40;;;;;;;;;0.00;0.00;;;;;19.61;58.16;101830.25;5092109;27;47454;-75
2021/08/28 10:54:10;;;;;;;;;0.00;0.00;;;;;19.57;58.05;101803.00;5077855;28;45659;-77
2021/08/28 10:56:40;;;;;;;;;0.00;0.00;;;;;19.72;57.82;101804.56;5094989;27;45502;-77
2021/08/28 10:59:35;;;;;;;;;0.00;0.00;;;;;19.83;57.54;101820.28;5084811;27;45465;-77
2021/08/28 11:02:09;;;;;;;;;0.00;0.00;;;;;19.69;57.19;101812.53;5079279;27;48400;-76
2021/08/28 11:04:36;;;;;;;;;0.00;0.00;;;;;19.71;57.14;101829.25;5094776;27;45406;-77
2021/08/28 11:07:21;;;;;;;;;0.00;0.00;;;;;19.65;57.44;101831.97;5093860;27;45399;-77
2021/08/28 11:10:05;;;;;;;;;0.00;0.00;;;;;19.80;57.31;101825.63;5081705;27;45567;-76
2021/08/28 11:12:50;;;;;;;;;0.00;0.00;;;;;19.79;57.54;101780.72;5078013;28;45663;-77
2021/08/28 11:15:25;;;;;;;;;0.00;0.00;;;;;20.19;57.35;101827.78;5083133;27;45337;-77
2021/08/28 11:18:10;;;;;;;;;0.00;0.00;;;;;20.18;57.28;101826.00;5089111;27;45376;-77
2021/08/28 11:20:43;;;;;;;;;0.00;0.00;;;;;20.30;57.34;101816.16;5087923;27;45499;-77
2021/08/28 11:23:14;;;;;;;;;0.25;0.00;;;;;20.04;57.46;101790.97;5079142;27;48401;-76
2021/08/28 11:25:43;;;;;;;;;0.00;0.00;;;;;20.00;57.09;101806.88;5104060;27;45424;-76
2021/08/28 11:28:10;;;;;;;;;0.00;0.00;;;;;19.93;56.61;101797.25;5084012;27;45442;-76